sensor_id;sensor_type;location;lat;lon;timestamp;pressure;altitude;pressure_sealevel;temperature;humidity
53932;BME280;39844;52.496;13.482;2023-08-20T00:00:44;101497.94;;;24.37;90.03
53932;BME280;39844;52.496;13.482;2023-08-20T00:03:11;101503.34;;;24.36;89.81
53932;BME280;39844;52.496;13.482;2023-08-20T00:05:38;101511.41;;;24.36;89.80
53932;BME280;39844;52.496;13.482;2023-08-20T00:08:04;101518.38;;;24.40;89.23
53932;BME280;39844;52.496;13.482;2023-08-20T00:10:29;101518.25;;;24.43;86.36
53932;BME280;39844;52.496;13.482;2023-08-20T00:12:54;101517.91;;;24.49;86.29
53932;BME280;39844;52.496;13.482;2023-08-20T00:15:20;101522.28;;;24.51;86.58
53932;BME280;39844;52.496;13.482;2023-08-20T00:17:45;101529.44;;;24.51;86.46
53932;BME280;39844;52.496;13.482;2023-08-20T00:20:11;101521.41;;;24.51;85.51
53932;BME280;39844;52.496;13.482;2023-08-20T00:22:39;101521.41;;;24.51;84.48
53932;BME280;39844;52.496;13.482;2023-08-20T00:25:05;101531.34;;;24.49;84.55
53932;BME280;39844;52.496;13.482;2023-08-20T00:27:31;101532.13;;;24.51;83.80
53932;BME280;39844;52.496;13.482;2023-08-20T00:29:57;101529.53;;;24.49;83.50
53932;BME280;39844;52.496;13.482;2023-08-20T00:32:22;101536.56;;;24.52;83.36
53932;BME280;39844;52.496;13.482;2023-08-20T00:34:48;101533.97;;;24.50;82.95
53932;BME280;39844;52.496;13.482;2023-08-20T00:37:13;101541.06;;;24.51;82.67
53932;BME280;39844;52.496;13.482;2023-08-20T00:39:39;101542.97;;;24.49;82.06
53932;BME280;39844;52.496;13.482;2023-08-20T00:42:04;101549.13;;;24.51;81.46
53932;BME280;39844;52.496;13.482;2023-08-20T00:44:33;101545.41;;;24.54;80.74
53932;BME280;39844;52.496;13.482;2023-08-20T00:46:59;101539.81;;;24.59;80.44
53932;BME280;39844;52.496;13.482;2023-08-20T00:49:25;101546.06;;;24.59;78.25
53932;BME280;39844;52.496;13.482;2023-08-20T00:51:50;101535.97;;;24.64;78.26
53932;BME280;39844;52.496;13.482;2023-08-20T00:54:16;101538.50;;;24.67;81.10
53932;BME280;39844;52.496;13.482;2023-08-20T00:56:41;101539.53;;;24.65;81.52
53932;BME280;39844;52.496;13.482;2023-08-20T00:59:07;101544.16;;;24.61;82.08
53932;BME280;39844;52.496;13.482;2023-08-20T01:01:32;101550.66;;;24.57;83.13
53932;BME280;39844;52.496;13.482;2023-08-20T01:03:57;101545.50;;;24.52;83.13
53932;BME280;39844;52.496;13.482;2023-08-20T01:09:28;101545.78;;;24.46;80.34
53932;BME280;39844;52.496;13.482;2023-08-20T01:11:59;101552.78;;;24.50;78.77
53932;BME280;39844;52.496;13.482;2023-08-20T01:14:25;101555.22;;;24.55;77.81
53932;BME280;39844;52.496;13.482;2023-08-20T01:16:50;101560.13;;;24.64;78.05
53932;BME280;39844;52.496;13.482;2023-08-20T01:19:21;101561.44;;;24.74;76.71
53932;BME280;39844;52.496;13.482;2023-08-20T01:24:38;101556.94;;;24.93;74.85
53932;BME280;39844;52.496;13.482;2023-08-20T01:30:00;101559.22;;;25.01;76.50
53932;BME280;39844;52.496;13.482;2023-08-20T01:32:26;101565.47;;;25.01;76.83
53932;BME280;39844;52.496;13.482;2023-08-20T01:34:52;101561.69;;;25.05;76.86
53932;BME280;39844;52.496;13.482;2023-08-20T01:37:18;101565.16;;;25.07;76.76
53932;BME280;39844;52.496;13.482;2023-08-20T01:39:43;101562.31;;;25.10;77.96
53932;BME280;39844;52.496;13.482;2023-08-20T01:42:08;101574.72;;;25.13;78.08
53932;BME280;39844;52.496;13.482;2023-08-20T01:44:34;101566.66;;;25.13;78.52
53932;BME280;39844;52.496;13.482;2023-08-20T01:46:59;101570.38;;;25.10;79.49
53932;BME280;39844;52.496;13.482;2023-08-20T01:49:26;101576.78;;;25.08;80.12
53932;BME280;39844;52.496;13.482;2023-08-20T01:51:52;101582.31;;;25.05;79.58
53932;BME280;39844;52.496;13.482;2023-08-20T01:54:17;101577.94;;;25.02;80.45
53932;BME280;39844;52.496;13.482;2023-08-20T01:56:42;101569.09;;;25.00;80.53
53932;BME280;39844;52.496;13.482;2023-08-20T01:59:08;101584.50;;;24.97;81.29
53932;BME280;39844;52.496;13.482;2023-08-20T02:01:33;101581.97;;;24.94;82.02
53932;BME280;39844;52.496;13.482;2023-08-20T02:03:58;101594.59;;;24.92;82.03
53932;BME280;39844;52.496;13.482;2023-08-20T02:06:23;101593.81;;;24.90;82.89
53932;BME280;39844;52.496;13.482;2023-08-20T02:08:49;101589.47;;;24.87;83.34
53932;BME280;39844;52.496;13.482;2023-08-20T02:11:14;101595.94;;;24.83;83.10
53932;BME280;39844;52.496;13.482;2023-08-20T02:13:39;101597.03;;;24.79;83.43
53932;BME280;39844;52.496;13.482;2023-08-20T02:16:05;101598.88;;;24.77;83.29
53932;BME280;39844;52.496;13.482;2023-08-20T02:18:30;101589.09;;;24.76;83.42
53932;BME280;39844;52.496;13.482;2023-08-20T02:20:56;101598.09;;;24.75;83.50
53932;BME280;39844;52.496;13.482;2023-08-20T02:23:21;101599.03;;;24.74;84.27
53932;BME280;39844;52.496;13.482;2023-08-20T02:25:47;101598.31;;;24.71;83.85
53932;BME280;39844;52.496;13.482;2023-08-20T02:28:12;101613.66;;;24.69;84.33
53932;BME280;39844;52.496;13.482;2023-08-20T02:30:42;101610.22;;;24.65;84.46
53932;BME280;39844;52.496;13.482;2023-08-20T02:33:08;101614.84;;;24.62;85.12
53932;BME280;39844;52.496;13.482;2023-08-20T02:35:33;101610.50;;;24.59;85.17
53932;BME280;39844;52.496;13.482;2023-08-20T02:37:58;101611.53;;;24.57;85.57
53932;BME280;39844;52.496;13.482;2023-08-20T02:40:24;101609.84;;;24.54;86.18
53932;BME280;39844;52.496;13.482;2023-08-20T02:42:49;101614.44;;;24.52;86.66
53932;BME280;39844;52.496;13.482;2023-08-20T02:45:14;101614.56;;;24.49;86.71
53932;BME280;39844;52.496;13.482;2023-08-20T02:47:40;101618.22;;;24.48;87.07
53932;BME280;39844;52.496;13.482;2023-08-20T02:50:07;101615.69;;;24.45;87.18
53932;BME280;39844;52.496;13.482;2023-08-20T02:52:33;101614.00;;;24.42;87.70
53932;BME280;39844;52.496;13.482;2023-08-20T02:54:58;101620.38;;;24.40;87.83
53932;BME280;39844;52.496;13.482;2023-08-20T02:57:23;101624.16;;;24.36;88.15
53932;BME280;39844;52.496;13.482;2023-08-20T02:59:49;101614.41;;;24.33;89.09
53932;BME280;39844;52.496;13.482;2023-08-20T03:02:15;101618.94;;;24.33;89.24
53932;BME280;39844;52.496;13.482;2023-08-20T03:04:40;101624.44;;;24.30;89.70
53932;BME280;39844;52.496;13.482;2023-08-20T03:07:05;101623.72;;;24.26;90.00
53932;BME280;39844;52.496;13.482;2023-08-20T03:09:31;101630.09;;;24.24;90.31
53932;BME280;39844;52.496;13.482;2023-08-20T03:11:56;101627.53;;;24.21;90.27
53932;BME280;39844;52.496;13.482;2023-08-20T03:14:21;101625.94;;;24.17;90.67
53932;BME280;39844;52.496;13.482;2023-08-20T03:16:46;101627.88;;;24.13;90.68
53932;BME280;39844;52.496;13.482;2023-08-20T03:19:14;101631.59;;;24.11;91.36
53932;BME280;39844;52.496;13.482;2023-08-20T03:21:40;101638.84;;;24.09;91.57
53932;BME280;39844;52.496;13.482;2023-08-20T03:24:06;101654.09;;;24.07;92.60
53932;BME280;39844;52.496;13.482;2023-08-20T03:26:31;101655.13;;;24.04;93.03
53932;BME280;39844;52.496;13.482;2023-08-20T03:28:56;101652.66;;;24.00;92.95
53932;BME280;39844;52.496;13.482;2023-08-20T03:31:22;101661.63;;;23.99;93.15
53932;BME280;39844;52.496;13.482;2023-08-20T03:33:48;101660.88;;;23.95;93.41
53932;BME280;39844;52.496;13.482;2023-08-20T03:36:13;101663.63;;;23.94;94.02
53932;BME280;39844;52.496;13.482;2023-08-20T03:38:38;101666.44;;;23.90;95.17
53932;BME280;39844;52.496;13.482;2023-08-20T03:41:04;101672.91;;;23.86;95.00
53932;BME280;39844;52.496;13.482;2023-08-20T03:43:29;101666.75;;;23.84;95.99
53932;BME280;39844;52.496;13.482;2023-08-20T03:45:54;101658.81;;;23.81;95.49
53932;BME280;39844;52.496;13.482;2023-08-20T03:48:19;101661.72;;;23.77;95.06
53932;BME280;39844;52.496;13.482;2023-08-20T03:50:45;101661.84;;;23.74;95.15
53932;BME280;39844;52.496;13.482;2023-08-20T03:53:10;101659.38;;;23.69;95.69
53932;BME280;39844;52.496;13.482;2023-08-20T03:55:35;101657.81;;;23.64;95.61
53932;BME280;39844;52.496;13.482;2023-08-20T03:58:00;101666.88;;;23.61;96.21
53932;BME280;39844;52.496;13.482;2023-08-20T04:00:26;101669.59;;;23.60;95.89
53932;BME280;39844;52.496;13.482;2023-08-20T04:02:53;101669.66;;;23.58;96.80
53932;BME280;39844;52.496;13.482;2023-08-20T04:05:18;101674.22;;;23.56;97.14
53932;BME280;39844;52.496;13.482;2023-08-20T04:07:44;101685.06;;;23.53;97.61
53932;BME280;39844;52.496;13.482;2023-08-20T04:10:09;101685.16;;;23.52;98.23
53932;BME280;39844;52.496;13.482;2023-08-20T04:12:34;101686.19;;;23.48;98.62
53932;BME280;39844;52.496;13.482;2023-08-20T04:15:00;101686.19;;;23.48;99.03
53932;BME280;39844;52.496;13.482;2023-08-20T04:17:25;101692.56;;;23.45;99.00
53932;BME280;39844;52.496;13.482;2023-08-20T04:19:50;101690.97;;;23.41;99.49
53932;BME280;39844;52.496;13.482;2023-08-20T04:22:15;101684.84;;;23.38;99.13
53932;BME280;39844;52.496;13.482;2023-08-20T04:24:41;101675.91;;;23.37;99.31
53932;BME280;39844;52.496;13.482;2023-08-20T04:27:06;101683.19;;;23.34;99.20
53932;BME280;39844;52.496;13.482;2023-08-20T04:29:32;101683.25;;;23.32;99.18
53932;BME280;39844;52.496;13.482;2023-08-20T04:31:58;101688.69;;;23.31;99.61
53932;BME280;39844;52.496;13.482;2023-08-20T04:34:23;101686.03;;;23.29;99.46
53932;BME280;39844;52.496;13.482;2023-08-20T04:36:48;101690.47;;;23.30;99.57
53932;BME280;39844;52.496;13.482;2023-08-20T04:39:13;101692.25;;;23.31;99.72
53932;BME280;39844;52.496;13.482;2023-08-20T04:41:39;101696.66;;;23.32;99.87
53932;BME280;39844;52.496;13.482;2023-08-20T04:44:04;101700.13;;;23.34;99.73
53932;BME280;39844;52.496;13.482;2023-08-20T04:46:29;101698.31;;;23.35;99.83
53932;BME280;39844;52.496;13.482;2023-08-20T04:48:55;101700.09;;;23.36;99.84
53932;BME280;39844;52.496;13.482;2023-08-20T04:51:20;101704.63;;;23.34;99.76
53932;BME280;39844;52.496;13.482;2023-08-20T04:53:45;101712.72;;;23.32;100.00
53932;BME280;39844;52.496;13.482;2023-08-20T04:56:10;101719.84;;;23.33;100.00
53932;BME280;39844;52.496;13.482;2023-08-20T04:58:36;101711.00;;;23.31;100.00
53932;BME280;39844;52.496;13.482;2023-08-20T05:01:01;101711.00;;;23.31;100.00
53932;BME280;39844;52.496;13.482;2023-08-20T05:03:26;101712.72;;;23.32;100.00
53932;BME280;39844;52.496;13.482;2023-08-20T05:05:52;101694.97;;;23.29;100.00
53932;BME280;39844;52.496;13.482;2023-08-20T05:08:17;101704.81;;;23.29;100.00
53932;BME280;39844;52.496;13.482;2023-08-20T05:10:42;101710.16;;;23.29;100.00
53932;BME280;39844;52.496;13.482;2023-08-20T05:13:08;101713.69;;;23.31;100.00
53932;BME280;39844;52.496;13.482;2023-08-20T05:15:33;101713.69;;;23.31;100.00
53932;BME280;39844;52.496;13.482;2023-08-20T05:17:58;101718.97;;;23.33;100.00
53932;BME280;39844;52.496;13.482;2023-08-20T05:20:24;101720.72;;;23.34;100.00
53932;BME280;39844;52.496;13.482;2023-08-20T05:22:49;101717.91;;;23.37;100.00
53932;BME280;39844;52.496;13.482;2023-08-20T05:25:14;101728.47;;;23.41;100.00
53932;BME280;39844;52.496;13.482;2023-08-20T05:27:40;101727.41;;;23.45;100.00
53932;BME280;39844;52.496;13.482;2023-08-20T05:30:06;101736.38;;;23.44;100.00
53932;BME280;39844;52.496;13.482;2023-08-20T05:32:31;101720.44;;;23.41;100.00
53932;BME280;39844;52.496;13.482;2023-08-20T05:34:56;101731.16;;;23.41;100.00
53932;BME280;39844;52.496;13.482;2023-08-20T05:37:22;101740.00;;;23.43;100.00
53932;BME280;39844;52.496;13.482;2023-08-20T05:39:47;101738.06;;;23.47;100.00
53932;BME280;39844;52.496;13.482;2023-08-20T05:42:12;101743.38;;;23.48;100.00
53932;BME280;39844;52.496;13.482;2023-08-20T05:44:37;101747.66;;;23.52;100.00
53932;BME280;39844;52.496;13.482;2023-08-20T05:47:03;101750.41;;;23.51;99.78
53932;BME280;39844;52.496;13.482;2023-08-20T05:49:28;101750.47;;;23.49;99.95
53932;BME280;39844;52.496;13.482;2023-08-20T05:51:54;101743.41;;;23.47;99.58
53932;BME280;39844;52.496;13.482;2023-08-20T05:54:19;101751.53;;;23.45;99.71
53932;BME280;39844;52.496;13.482;2023-08-20T05:56:44;101762.19;;;23.47;100.00
53932;BME280;39844;52.496;13.482;2023-08-20T05:59:10;101762.94;;;23.50;100.00
53932;BME280;39844;52.496;13.482;2023-08-20T06:01:35;101769.09;;;23.52;99.18
53932;BME280;39844;52.496;13.482;2023-08-20T06:04:00;101765.38;;;23.56;98.32
53932;BME280;39844;52.496;13.482;2023-08-20T06:06:26;101762.63;;;23.58;97.67
53932;BME280;39844;52.496;13.482;2023-08-20T06:08:51;101752.66;;;23.61;98.33
53932;BME280;39844;52.496;13.482;2023-08-20T06:11:17;101748.91;;;23.65;97.00
53932;BME280;39844;52.496;13.482;2023-08-20T06:13:42;101746.91;;;23.70;95.84
53932;BME280;39844;52.496;13.482;2023-08-20T06:16:07;101761.09;;;23.72;96.52
53932;BME280;39844;52.496;13.482;2023-08-20T06:18:32;101766.31;;;23.77;95.56
53932;BME280;39844;52.496;13.482;2023-08-20T06:20:58;101757.25;;;23.79;95.85
53932;BME280;39844;52.496;13.482;2023-08-20T06:23:23;101753.63;;;23.80;97.04
53932;BME280;39844;52.496;13.482;2023-08-20T06:25:50;101769.47;;;23.86;97.86
53932;BME280;39844;52.496;13.482;2023-08-20T06:28:15;101764.22;;;23.83;95.81
53932;BME280;39844;52.496;13.482;2023-08-20T06:30:41;101781.19;;;23.84;95.60
53932;BME280;39844;52.496;13.482;2023-08-20T06:33:06;101784.75;;;23.84;95.00
53932;BME280;39844;52.496;13.482;2023-08-20T06:35:31;101791.97;;;23.82;96.13
53932;BME280;39844;52.496;13.482;2023-08-20T06:37:57;101792.91;;;23.81;95.77
53932;BME280;39844;52.496;13.482;2023-08-20T06:40:22;101789.59;;;23.75;95.64
53932;BME280;39844;52.496;13.482;2023-08-20T06:42:47;101798.53;;;23.75;96.67
53932;BME280;39844;52.496;13.482;2023-08-20T06:45:13;101800.28;;;23.76;95.68
53932;BME280;39844;52.496;13.482;2023-08-20T06:47:38;101795.81;;;23.77;94.81
53932;BME280;39844;52.496;13.482;2023-08-20T06:50:04;101799.34;;;23.77;94.48
53932;BME280;39844;52.496;13.482;2023-08-20T06:52:30;101795.66;;;23.80;94.82
53932;BME280;39844;52.496;13.482;2023-08-20T06:54:55;101800.66;;;23.89;95.23
53932;BME280;39844;52.496;13.482;2023-08-20T06:57:20;101801.25;;;23.96;94.88
53932;BME280;39844;52.496;13.482;2023-08-20T06:59:46;101805.50;;;24.01;92.31
53932;BME280;39844;52.496;13.482;2023-08-20T07:02:11;101808.09;;;24.03;92.67
53932;BME280;39844;52.496;13.482;2023-08-20T07:04:37;101810.72;;;24.04;91.74
53932;BME280;39844;52.496;13.482;2023-08-20T07:07:02;101807.25;;;24.02;91.42
53932;BME280;39844;52.496;13.482;2023-08-20T07:09:27;101812.78;;;23.98;90.91
53932;BME280;39844;52.496;13.482;2023-08-20T07:11:52;101811.97;;;23.96;91.58
53932;BME280;39844;52.496;13.482;2023-08-20T07:14:18;101825.47;;;23.94;91.78
53932;BME280;39844;52.496;13.482;2023-08-20T07:16:43;101831.75;;;23.93;92.53
53932;BME280;39844;52.496;13.482;2023-08-20T07:19:08;101840.56;;;23.97;92.84
53932;BME280;39844;52.496;13.482;2023-08-20T07:21:33;101835.09;;;24.00;92.36
53932;BME280;39844;52.496;13.482;2023-08-20T07:24:01;101840.44;;;24.00;91.60
53932;BME280;39844;52.496;13.482;2023-08-20T07:26:26;101841.06;;;24.06;92.87
53932;BME280;39844;52.496;13.482;2023-08-20T07:28:51;101839.97;;;24.12;90.83
53932;BME280;39844;52.496;13.482;2023-08-20T07:31:17;101832.66;;;24.15;89.71
53932;BME280;39844;52.496;13.482;2023-08-20T07:33:48;101840.56;;;24.18;88.72
53932;BME280;39844;52.496;13.482;2023-08-20T07:36:15;101853.19;;;24.16;88.76
53932;BME280;39844;52.496;13.482;2023-08-20T07:38:40;101849.78;;;24.13;88.59
53932;BME280;39844;52.496;13.482;2023-08-20T07:41:06;101847.09;;;24.13;88.69
53932;BME280;39844;52.496;13.482;2023-08-20T07:43:32;101846.69;;;24.22;89.16
53932;BME280;39844;52.496;13.482;2023-08-20T07:45:57;101847.16;;;24.31;88.46
53932;BME280;39844;52.496;13.482;2023-08-20T07:48:22;101844.13;;;24.39;86.97
53932;BME280;39844;52.496;13.482;2023-08-20T07:50:47;101846.34;;;24.49;87.50
53932;BME280;39844;52.496;13.482;2023-08-20T07:53:13;101859.72;;;24.51;84.21
53932;BME280;39844;52.496;13.482;2023-08-20T07:55:38;101853.81;;;24.43;84.95
53932;BME280;39844;52.496;13.482;2023-08-20T07:58:03;101859.31;;;24.40;85.30
53932;BME280;39844;52.496;13.482;2023-08-20T08:00:29;101859.53;;;24.35;86.21
53932;BME280;39844;52.496;13.482;2023-08-20T08:02:54;101860.66;;;24.30;86.65
53932;BME280;39844;52.496;13.482;2023-08-20T08:05:19;101868.75;;;24.28;88.31
53932;BME280;39844;52.496;13.482;2023-08-20T08:07:45;101865.47;;;24.22;86.69
53932;BME280;39844;52.496;13.482;2023-08-20T08:10:10;101870.75;;;24.23;87.85
53932;BME280;39844;52.496;13.482;2023-08-20T08:12:35;101872.31;;;24.29;88.47
53932;BME280;39844;52.496;13.482;2023-08-20T08:15:01;101868.63;;;24.31;86.76
53932;BME280;39844;52.496;13.482;2023-08-20T08:17:26;101864.06;;;24.33;86.21
53932;BME280;39844;52.496;13.482;2023-08-20T08:19:51;101861.31;;;24.35;86.30
53932;BME280;39844;52.496;13.482;2023-08-20T08:22:17;101864.06;;;24.33;84.84
53932;BME280;39844;52.496;13.482;2023-08-20T08:24:42;101867.41;;;24.38;87.63
53932;BME280;39844;52.496;13.482;2023-08-20T08:27:07;101869.66;;;24.49;86.09
53932;BME280;39844;52.496;13.482;2023-08-20T08:29:33;101873.47;;;24.43;83.78
53932;BME280;39844;52.496;13.482;2023-08-20T08:31:58;101873.78;;;24.36;84.50
53932;BME280;39844;52.496;13.482;2023-08-20T08:34:24;101857.88;;;24.31;84.70
53932;BME280;39844;52.496;13.482;2023-08-20T08:36:50;101872.28;;;24.30;84.84
53932;BME280;39844;52.496;13.482;2023-08-20T08:39:15;101874.94;;;24.30;85.52
53932;BME280;39844;52.496;13.482;2023-08-20T08:41:42;101875.00;;;24.29;84.62
53932;BME280;39844;52.496;13.482;2023-08-20T08:44:10;101872.13;;;24.33;86.24
53932;BME280;39844;52.496;13.482;2023-08-20T08:46:38;101867.25;;;24.43;85.37
53932;BME280;39844;52.496;13.482;2023-08-20T08:49:04;101870.41;;;24.52;83.80
53932;BME280;39844;52.496;13.482;2023-08-20T08:51:31;101867.72;;;24.52;82.01
53932;BME280;39844;52.496;13.482;2023-08-20T08:53:58;101877.56;;;24.52;82.45
53932;BME280;39844;52.496;13.482;2023-08-20T08:56:24;101876.50;;;24.56;82.73
53932;BME280;39844;52.496;13.482;2023-08-20T08:58:50;101875.19;;;24.66;81.99
53932;BME280;39844;52.496;13.482;2023-08-20T09:01:15;101871.19;;;24.75;81.00
53932;BME280;39844;52.496;13.482;2023-08-20T09:03:41;101873.56;;;24.82;80.50
53932;BME280;39844;52.496;13.482;2023-08-20T09:06:11;101875.69;;;24.94;80.12
53932;BME280;39844;52.496;13.482;2023-08-20T09:08:37;101870.50;;;25.10;78.79
53932;BME280;39844;52.496;13.482;2023-08-20T09:11:03;101878.31;;;25.16;78.00
53932;BME280;39844;52.496;13.482;2023-08-20T09:13:42;101876.84;;;25.28;78.03
53932;BME280;39844;52.496;13.482;2023-08-20T09:16:11;101875.78;;;25.32;76.75
53932;BME280;39844;52.496;13.482;2023-08-20T09:18:42;101864.06;;;25.33;76.51
53932;BME280;39844;52.496;13.482;2023-08-20T09:21:11;101850.44;;;25.37;77.67
53932;BME280;39844;52.496;13.482;2023-08-20T09:23:37;101851.13;;;25.41;76.59
53932;BME280;39844;52.496;13.482;2023-08-20T09:26:04;101854.59;;;25.43;76.28
53932;BME280;39844;52.496;13.482;2023-08-20T09:28:46;101851.75;;;25.47;75.57
53932;BME280;39844;52.496;13.482;2023-08-20T09:31:12;101858.94;;;25.47;74.97
53932;BME280;39844;52.496;13.482;2023-08-20T09:33:54;101847.19;;;25.49;74.91
53932;BME280;39844;52.496;13.482;2023-08-20T09:36:32;101853.44;;;25.50;74.54
53932;BME280;39844;52.496;13.482;2023-08-20T09:38:58;101851.41;;;25.55;75.33
53932;BME280;39844;52.496;13.482;2023-08-20T09:41:23;101847.50;;;25.60;75.54
53932;BME280;39844;52.496;13.482;2023-08-20T09:43:55;101841.06;;;25.64;75.22
53932;BME280;39844;52.496;13.482;2023-08-20T09:46:24;101834.50;;;25.70;75.87
53932;BME280;39844;52.496;13.482;2023-08-20T09:48:51;101834.19;;;25.76;76.54
53932;BME280;39844;52.496;13.482;2023-08-20T09:51:20;101832.47;;;25.75;74.78
53932;BME280;39844;52.496;13.482;2023-08-20T09:53:55;101846.06;;;25.72;73.33
53932;BME280;39844;52.496;13.482;2023-08-20T09:56:30;101845.31;;;25.68;73.92
53932;BME280;39844;52.496;13.482;2023-08-20T09:58:57;101848.16;;;25.65;73.32
53932;BME280;39844;52.496;13.482;2023-08-20T10:01:23;101838.94;;;25.71;73.94
53932;BME280;39844;52.496;13.482;2023-08-20T10:03:49;101852.31;;;25.72;71.41
53932;BME280;39844;52.496;13.482;2023-08-20T10:06:15;101849.44;;;25.75;70.46
53932;BME280;39844;52.496;13.482;2023-08-20T10:08:41;101846.47;;;25.82;70.48
53932;BME280;39844;52.496;13.482;2023-08-20T10:11:06;101852.59;;;25.85;69.35
53932;BME280;39844;52.496;13.482;2023-08-20T10:13:31;101848.63;;;25.92;68.96
53932;BME280;39844;52.496;13.482;2023-08-20T10:15:57;101845.66;;;25.98;68.96
53932;BME280;39844;52.496;13.482;2023-08-20T10:18:22;101856.88;;;26.06;70.21
53932;BME280;39844;52.496;13.482;2023-08-20T10:20:51;101852.31;;;26.08;67.75
53932;BME280;39844;52.496;13.482;2023-08-20T10:23:20;101852.03;;;26.14;66.64
53932;BME280;39844;52.496;13.482;2023-08-20T10:25:46;101849.28;;;26.16;65.29
53932;BME280;39844;52.496;13.482;2023-08-20T10:28:23;101848.94;;;26.22;64.60
53932;BME280;39844;52.496;13.482;2023-08-20T10:33:29;101839.13;;;26.38;64.58
53932;BME280;39844;52.496;13.482;2023-08-20T10:35:54;101840.31;;;26.50;62.72
53932;BME280;39844;52.496;13.482;2023-08-20T10:38:20;101836.81;;;26.65;61.28
53932;BME280;39844;52.496;13.482;2023-08-20T10:40:56;101835.38;;;26.92;61.87
53932;BME280;39844;52.496;13.482;2023-08-20T10:48:32;101833.63;;;28.02;57.14
53932;BME280;39844;52.496;13.482;2023-08-20T10:50:58;101829.84;;;28.50;55.23
53932;BME280;39844;52.496;13.482;2023-08-20T10:53:23;101840.72;;;28.92;53.43
53932;BME280;39844;52.496;13.482;2023-08-20T10:55:49;101837.72;;;29.11;51.54
53932;BME280;39844;52.496;13.482;2023-08-20T10:58:14;101831.56;;;29.23;50.49
53932;BME280;39844;52.496;13.482;2023-08-20T11:00:40;101830.34;;;29.55;49.98
53932;BME280;39844;52.496;13.482;2023-08-20T11:03:06;101829.22;;;29.86;48.87
53932;BME280;39844;52.496;13.482;2023-08-20T11:05:32;101836.53;;;30.11;47.27
53932;BME280;39844;52.496;13.482;2023-08-20T11:08:00;101830.38;;;30.09;47.00
53932;BME280;39844;52.496;13.482;2023-08-20T11:10:25;101833.41;;;30.04;46.17
53932;BME280;39844;52.496;13.482;2023-08-20T11:12:51;101835.75;;;29.96;46.87
53932;BME280;39844;52.496;13.482;2023-08-20T11:15:17;101833.91;;;29.96;46.21
53932;BME280;39844;52.496;13.482;2023-08-20T11:17:44;101834.16;;;30.06;46.32
53932;BME280;39844;52.496;13.482;2023-08-20T11:20:10;101837.63;;;30.08;46.43
53932;BME280;39844;52.496;13.482;2023-08-20T11:22:38;101845.91;;;30.19;45.65
53932;BME280;39844;52.496;13.482;2023-08-20T11:25:04;101842.41;;;30.44;45.22
53932;BME280;39844;52.496;13.482;2023-08-20T11:27:29;101841.47;;;30.83;44.57
53932;BME280;39844;52.496;13.482;2023-08-20T11:29:55;101828.56;;;31.11;43.89
53932;BME280;39844;52.496;13.482;2023-08-20T11:32:20;101835.13;;;31.33;42.98
53932;BME280;39844;52.496;13.482;2023-08-20T11:34:45;101831.63;;;31.43;42.05
53932;BME280;39844;52.496;13.482;2023-08-20T11:37:11;101837.13;;;31.67;41.64
53932;BME280;39844;52.496;13.482;2023-08-20T11:39:36;101833.47;;;31.68;41.88
53932;BME280;39844;52.496;13.482;2023-08-20T11:42:02;101838.53;;;31.72;40.80
53932;BME280;39844;52.496;13.482;2023-08-20T11:44:27;101830.88;;;31.54;41.15
53932;BME280;39844;52.496;13.482;2023-08-20T11:46:53;101829.38;;;31.50;42.00
53932;BME280;39844;52.496;13.482;2023-08-20T11:49:26;101831.31;;;31.60;41.92
53932;BME280;39844;52.496;13.482;2023-08-20T11:51:52;101819.41;;;31.74;41.21
53932;BME280;39844;52.496;13.482;2023-08-20T11:54:18;101829.19;;;32.00;41.33
53932;BME280;39844;52.496;13.482;2023-08-20T11:56:44;101826.78;;;32.08;40.79
53932;BME280;39844;52.496;13.482;2023-08-20T11:59:11;101828.97;;;32.03;40.44
53932;BME280;39844;52.496;13.482;2023-08-20T12:01:36;101834.41;;;32.03;41.07
53932;BME280;39844;52.496;13.482;2023-08-20T12:04:08;101828.59;;;32.31;39.72
53932;BME280;39844;52.496;13.482;2023-08-20T12:06:36;101833.44;;;32.50;40.26
53932;BME280;39844;52.496;13.482;2023-08-20T12:09:02;101831.53;;;32.63;39.69
53932;BME280;39844;52.496;13.482;2023-08-20T12:11:48;101823.03;;;32.90;40.75
53932;BME280;39844;52.496;13.482;2023-08-20T12:14:13;101821.03;;;33.03;39.21
53932;BME280;39844;52.496;13.482;2023-08-20T12:16:39;101812.03;;;33.14;39.35
53932;BME280;39844;52.496;13.482;2023-08-20T12:19:04;101818.34;;;33.36;38.46
53932;BME280;39844;52.496;13.482;2023-08-20T12:21:29;101824.78;;;33.24;38.36
53932;BME280;39844;52.496;13.482;2023-08-20T12:23:55;101808.94;;;33.18;37.76
53932;BME280;39844;52.496;13.482;2023-08-20T12:26:20;101812.19;;;33.12;38.79
53932;BME280;39844;52.496;13.482;2023-08-20T12:28:45;101813.16;;;33.11;39.15
53932;BME280;39844;52.496;13.482;2023-08-20T12:31:10;101824.28;;;32.97;39.56
53932;BME280;39844;52.496;13.482;2023-08-20T12:33:36;101810.66;;;32.86;38.62
53932;BME280;39844;52.496;13.482;2023-08-20T12:36:01;101819.44;;;32.89;39.36
53932;BME280;39844;52.496;13.482;2023-08-20T12:38:26;101808.69;;;32.99;38.42
53932;BME280;39844;52.496;13.482;2023-08-20T12:40:52;101805.72;;;33.13;38.45
53932;BME280;39844;52.496;13.482;2023-08-20T12:43:17;101807.13;;;33.07;38.18
53932;BME280;39844;52.496;13.482;2023-08-20T12:45:42;101806.34;;;32.94;37.61
53932;BME280;39844;52.496;13.482;2023-08-20T12:48:08;101797.34;;;33.05;38.71
53932;BME280;39844;52.496;13.482;2023-08-20T12:50:33;101810.41;;;32.89;37.94